sensor_id;sensor_type;location;lat;lon;timestamp;temperature;humidity
674;DHT22;319;48.764;9.174;2023-02-28T00:01:06;1.40;82.90
674;DHT22;319;48.764;9.174;2023-02-28T00:03:32;1.30;87.50
674;DHT22;319;48.764;9.174;2023-02-28T00:06:02;1.10;87.60
674;DHT22;319;48.764;9.174;2023-02-28T00:08:29;1.20;88.60
674;DHT22;319;48.764;9.174;2023-02-28T00:10:55;1.20;88.70
674;DHT22;319;48.764;9.174;2023-02-28T00:13:22;1.20;89.30
674;DHT22;319;48.764;9.174;2023-02-28T00:15:58;1.10;89.40
674;DHT22;319;48.764;9.174;2023-02-28T00:18:25;1.20;90.40
674;DHT22;319;48.764;9.174;2023-02-28T00:20:52;1.10;90.30
674;DHT22;319;48.764;9.174;2023-02-28T00:23:20;1.20;90.30
674;DHT22;319;48.764;9.174;2023-02-28T00:25:48;1.20;90.70
674;DHT22;319;48.764;9.174;2023-02-28T00:28:15;1.10;90.50
674;DHT22;319;48.764;9.174;2023-02-28T00:30:43;1.10;90.70
674;DHT22;319;48.764;9.174;2023-02-28T00:33:10;1.10;90.90
674;DHT22;319;48.764;9.174;2023-02-28T00:35:37;0.90;91.00
674;DHT22;319;48.764;9.174;2023-02-28T00:38:04;0.40;90.80
674;DHT22;319;48.764;9.174;2023-02-28T00:40:32;0.90;90.90
674;DHT22;319;48.764;9.174;2023-02-28T00:42:59;0.80;91.00
674;DHT22;319;48.764;9.174;2023-02-28T00:45:26;1.00;91.00
674;DHT22;319;48.764;9.174;2023-02-28T00:47:53;0.90;91.10
674;DHT22;319;48.764;9.174;2023-02-28T00:50:20;1.00;91.10
674;DHT22;319;48.764;9.174;2023-02-28T00:52:47;0.90;91.20
674;DHT22;319;48.764;9.174;2023-02-28T00:57:43;0.90;91.60
674;DHT22;319;48.764;9.174;2023-02-28T01:00:10;0.90;91.70
674;DHT22;319;48.764;9.174;2023-02-28T01:07:32;1.60;89.80
674;DHT22;319;48.764;9.174;2023-02-28T01:14:55;0.80;92.30
674;DHT22;319;48.764;9.174;2023-02-28T01:17:21;0.80;92.50
674;DHT22;319;48.764;9.174;2023-02-28T01:22:15;0.80;90.00
674;DHT22;319;48.764;9.174;2023-02-28T01:24:42;0.80;92.60
674;DHT22;319;48.764;9.174;2023-02-28T01:27:09;0.60;93.80
674;DHT22;319;48.764;9.174;2023-02-28T01:32:04;0.70;90.40
674;DHT22;319;48.764;9.174;2023-02-28T01:34:31;0.90;93.90
674;DHT22;319;48.764;9.174;2023-02-28T01:36:58;0.80;93.50
674;DHT22;319;48.764;9.174;2023-02-28T01:39:25;0.70;93.70
674;DHT22;319;48.764;9.174;2023-02-28T01:41:51;0.80;93.80
674;DHT22;319;48.764;9.174;2023-02-28T01:47:36;0.80;92.50
674;DHT22;319;48.764;9.174;2023-02-28T01:50:07;1.20;94.90
674;DHT22;319;48.764;9.174;2023-02-28T01:52:36;0.90;94.20
674;DHT22;319;48.764;9.174;2023-02-28T01:55:05;0.80;94.20
674;DHT22;319;48.764;9.174;2023-02-28T01:57:36;0.80;94.00
674;DHT22;319;48.764;9.174;2023-02-28T02:00:09;0.90;94.40
674;DHT22;319;48.764;9.174;2023-02-28T02:02:43;0.80;93.90
674;DHT22;319;48.764;9.174;2023-02-28T02:05:14;0.70;95.00
674;DHT22;319;48.764;9.174;2023-02-28T02:07:44;0.90;95.00
674;DHT22;319;48.764;9.174;2023-02-28T02:10:13;0.90;99.90
674;DHT22;319;48.764;9.174;2023-02-28T02:13:00;0.90;95.00
674;DHT22;319;48.764;9.174;2023-02-28T02:15:33;0.90;93.20
674;DHT22;319;48.764;9.174;2023-02-28T02:18:08;1.00;95.40
674;DHT22;319;48.764;9.174;2023-02-28T02:20:55;0.80;99.90
674;DHT22;319;48.764;9.174;2023-02-28T02:24:04;1.80;96.60
674;DHT22;319;48.764;9.174;2023-02-28T02:26:52;0.90;94.10
674;DHT22;319;48.764;9.174;2023-02-28T02:29:48;1.00;93.70
674;DHT22;319;48.764;9.174;2023-02-28T02:32:45;0.60;99.90
674;DHT22;319;48.764;9.174;2023-02-28T02:35:17;0.90;94.20
674;DHT22;319;48.764;9.174;2023-02-28T02:37:50;0.70;96.00
674;DHT22;319;48.764;9.174;2023-02-28T02:40:20;0.90;96.30
674;DHT22;319;48.764;9.174;2023-02-28T02:43:11;1.00;95.70
674;DHT22;319;48.764;9.174;2023-02-28T02:45:43;0.90;96.60
674;DHT22;319;48.764;9.174;2023-02-28T02:48:14;0.90;96.00
674;DHT22;319;48.764;9.174;2023-02-28T02:50:46;1.10;96.10
674;DHT22;319;48.764;9.174;2023-02-28T02:53:14;1.10;96.30
674;DHT22;319;48.764;9.174;2023-02-28T02:55:44;0.80;99.90
674;DHT22;319;48.764;9.174;2023-02-28T02:58:14;0.80;96.10
674;DHT22;319;48.764;9.174;2023-02-28T03:00:47;1.00;96.60
674;DHT22;319;48.764;9.174;2023-02-28T03:03:15;1.20;96.90
674;DHT22;319;48.764;9.174;2023-02-28T03:05:49;0.90;96.70
674;DHT22;319;48.764;9.174;2023-02-28T03:08:17;1.00;97.40
674;DHT22;319;48.764;9.174;2023-02-28T03:10:45;1.00;95.80
674;DHT22;319;48.764;9.174;2023-02-28T03:16:26;1.40;99.90
674;DHT22;319;48.764;9.174;2023-02-28T03:19:02;3.10;98.80
674;DHT22;319;48.764;9.174;2023-02-28T03:21:34;0.70;97.60
674;DHT22;319;48.764;9.174;2023-02-28T03:24:06;0.80;97.50
674;DHT22;319;48.764;9.174;2023-02-28T03:26:40;0.80;97.20
674;DHT22;319;48.764;9.174;2023-02-28T03:29:13;0.80;97.70
674;DHT22;319;48.764;9.174;2023-02-28T03:31:47;0.80;97.70
674;DHT22;319;48.764;9.174;2023-02-28T03:34:19;1.90;98.50
674;DHT22;319;48.764;9.174;2023-02-28T03:36:51;0.80;97.90
674;DHT22;319;48.764;9.174;2023-02-28T03:39:21;0.90;97.90
674;DHT22;319;48.764;9.174;2023-02-28T03:41:52;1.20;98.20
674;DHT22;319;48.764;9.174;2023-02-28T03:44:23;1.30;98.70
674;DHT22;319;48.764;9.174;2023-02-28T03:46:54;0.90;98.80
674;DHT22;319;48.764;9.174;2023-02-28T03:49:26;0.90;98.10
674;DHT22;319;48.764;9.174;2023-02-28T03:51:58;0.90;97.90
674;DHT22;319;48.764;9.174;2023-02-28T03:54:29;1.60;98.70
674;DHT22;319;48.764;9.174;2023-02-28T03:57:00;1.00;99.90
674;DHT22;319;48.764;9.174;2023-02-28T03:59:32;1.10;98.50
674;DHT22;319;48.764;9.174;2023-02-28T04:02:01;1.10;98.10
674;DHT22;319;48.764;9.174;2023-02-28T04:04:28;1.20;98.10
674;DHT22;319;48.764;9.174;2023-02-28T04:07:05;1.10;97.90
674;DHT22;319;48.764;9.174;2023-02-28T04:09:32;1.40;98.30
674;DHT22;319;48.764;9.174;2023-02-28T04:11:59;1.30;98.10
674;DHT22;319;48.764;9.174;2023-02-28T04:14:25;1.30;98.20
674;DHT22;319;48.764;9.174;2023-02-28T04:16:52;1.30;98.00
674;DHT22;319;48.764;9.174;2023-02-28T04:19:19;1.30;98.00
674;DHT22;319;48.764;9.174;2023-02-28T04:21:47;1.40;97.90
674;DHT22;319;48.764;9.174;2023-02-28T04:24:18;1.50;97.80
674;DHT22;319;48.764;9.174;2023-02-28T04:26:46;1.40;97.80
674;DHT22;319;48.764;9.174;2023-02-28T04:29:19;1.50;97.50
674;DHT22;319;48.764;9.174;2023-02-28T04:31:46;1.50;97.70
674;DHT22;319;48.764;9.174;2023-02-28T04:34:13;1.50;97.80
674;DHT22;319;48.764;9.174;2023-02-28T04:36:40;1.80;97.90
674;DHT22;319;48.764;9.174;2023-02-28T04:39:07;1.70;97.80
674;DHT22;319;48.764;9.174;2023-02-28T04:41:36;1.60;97.00
674;DHT22;319;48.764;9.174;2023-02-28T04:44:03;1.60;97.30
674;DHT22;319;48.764;9.174;2023-02-28T04:46:30;1.70;97.20
674;DHT22;319;48.764;9.174;2023-02-28T04:48:56;1.60;99.90
674;DHT22;319;48.764;9.174;2023-02-28T04:51:23;1.60;97.60
674;DHT22;319;48.764;9.174;2023-02-28T04:53:50;1.50;97.60
674;DHT22;319;48.764;9.174;2023-02-28T04:56:18;1.50;99.90
674;DHT22;319;48.764;9.174;2023-02-28T04:58:46;1.40;97.80
674;DHT22;319;48.764;9.174;2023-02-28T05:01:20;2.10;98.40
674;DHT22;319;48.764;9.174;2023-02-28T05:03:47;1.40;98.00
674;DHT22;319;48.764;9.174;2023-02-28T05:06:15;1.50;99.90
674;DHT22;319;48.764;9.174;2023-02-28T05:08:42;1.30;97.90
674;DHT22;319;48.764;9.174;2023-02-28T05:11:14;1.50;97.90
674;DHT22;319;48.764;9.174;2023-02-28T05:13:42;1.50;98.00
674;DHT22;319;48.764;9.174;2023-02-28T05:16:10;1.50;97.50
674;DHT22;319;48.764;9.174;2023-02-28T05:18:37;1.50;98.30
674;DHT22;319;48.764;9.174;2023-02-28T05:21:04;1.40;98.00
674;DHT22;319;48.764;9.174;2023-02-28T05:23:31;1.50;97.90
674;DHT22;319;48.764;9.174;2023-02-28T05:25:58;1.40;98.30
674;DHT22;319;48.764;9.174;2023-02-28T05:28:24;1.90;98.40
674;DHT22;319;48.764;9.174;2023-02-28T05:30:51;1.30;98.10
674;DHT22;319;48.764;9.174;2023-02-28T05:33:19;1.50;97.90
674;DHT22;319;48.764;9.174;2023-02-28T05:35:46;1.60;98.40
674;DHT22;319;48.764;9.174;2023-02-28T05:38:13;1.40;98.50
674;DHT22;319;48.764;9.174;2023-02-28T05:40:40;1.50;98.20
674;DHT22;319;48.764;9.174;2023-02-28T05:43:10;1.50;98.40
674;DHT22;319;48.764;9.174;2023-02-28T05:45:37;1.50;98.10
674;DHT22;319;48.764;9.174;2023-02-28T05:48:04;1.50;98.10
674;DHT22;319;48.764;9.174;2023-02-28T05:50:32;1.50;98.00
674;DHT22;319;48.764;9.174;2023-02-28T05:52:59;2.00;98.80
674;DHT22;319;48.764;9.174;2023-02-28T05:55:26;1.50;98.20
674;DHT22;319;48.764;9.174;2023-02-28T05:57:52;1.50;98.70
674;DHT22;319;48.764;9.174;2023-02-28T06:00:20;1.50;98.60
674;DHT22;319;48.764;9.174;2023-02-28T06:02:46;1.10;98.50
674;DHT22;319;48.764;9.174;2023-02-28T06:05:15;1.50;98.60
674;DHT22;319;48.764;9.174;2023-02-28T06:07:44;1.30;98.90
674;DHT22;319;48.764;9.174;2023-02-28T06:10:11;1.50;99.20
674;DHT22;319;48.764;9.174;2023-02-28T06:12:38;1.60;98.80
674;DHT22;319;48.764;9.174;2023-02-28T06:15:07;1.50;99.00
674;DHT22;319;48.764;9.174;2023-02-28T06:17:37;1.60;98.40
674;DHT22;319;48.764;9.174;2023-02-28T06:20:05;1.60;98.60
674;DHT22;319;48.764;9.174;2023-02-28T06:22:32;1.70;98.00
674;DHT22;319;48.764;9.174;2023-02-28T06:25:00;1.60;98.90
674;DHT22;319;48.764;9.174;2023-02-28T06:27:26;1.50;99.10
674;DHT22;319;48.764;9.174;2023-02-28T06:29:54;1.50;99.10
674;DHT22;319;48.764;9.174;2023-02-28T06:32:21;1.60;99.10
674;DHT22;319;48.764;9.174;2023-02-28T06:34:48;1.60;98.90
674;DHT22;319;48.764;9.174;2023-02-28T06:37:15;1.60;99.00
674;DHT22;319;48.764;9.174;2023-02-28T06:39:42;1.90;98.80
674;DHT22;319;48.764;9.174;2023-02-28T06:42:11;2.00;98.80
674;DHT22;319;48.764;9.174;2023-02-28T06:44:38;1.70;98.80
674;DHT22;319;48.764;9.174;2023-02-28T06:47:07;1.80;98.70
674;DHT22;319;48.764;9.174;2023-02-28T06:49:34;1.80;98.40
674;DHT22;319;48.764;9.174;2023-02-28T06:52:02;1.80;98.30
674;DHT22;319;48.764;9.174;2023-02-28T06:54:29;2.00;99.90
674;DHT22;319;48.764;9.174;2023-02-28T06:56:57;1.90;97.90
674;DHT22;319;48.764;9.174;2023-02-28T06:59:25;2.20;98.20
674;DHT22;319;48.764;9.174;2023-02-28T07:01:52;2.00;98.00
674;DHT22;319;48.764;9.174;2023-02-28T07:04:18;2.00;97.70
674;DHT22;319;48.764;9.174;2023-02-28T07:06:45;1.90;97.90
674;DHT22;319;48.764;9.174;2023-02-28T07:09:12;2.10;97.70
674;DHT22;319;48.764;9.174;2023-02-28T07:11:39;2.00;97.60
674;DHT22;319;48.764;9.174;2023-02-28T07:14:07;2.10;97.70
674;DHT22;319;48.764;9.174;2023-02-28T07:16:35;1.90;97.70
674;DHT22;319;48.764;9.174;2023-02-28T07:19:02;1.90;98.20
674;DHT22;319;48.764;9.174;2023-02-28T07:21:29;1.70;98.20
674;DHT22;319;48.764;9.174;2023-02-28T07:23:56;1.50;98.30
674;DHT22;319;48.764;9.174;2023-02-28T07:26:23;1.60;99.90
674;DHT22;319;48.764;9.174;2023-02-28T07:28:50;1.70;98.30
674;DHT22;319;48.764;9.174;2023-02-28T07:31:17;1.80;99.90
674;DHT22;319;48.764;9.174;2023-02-28T07:33:45;2.10;97.20
674;DHT22;319;48.764;9.174;2023-02-28T07:36:14;1.80;97.00
674;DHT22;319;48.764;9.174;2023-02-28T07:38:43;2.50;96.70
674;DHT22;319;48.764;9.174;2023-02-28T07:41:09;2.00;96.10
674;DHT22;319;48.764;9.174;2023-02-28T07:43:36;2.10;99.90
674;DHT22;319;48.764;9.174;2023-02-28T07:46:04;2.00;97.00
674;DHT22;319;48.764;9.174;2023-02-28T07:48:31;2.10;97.30
674;DHT22;319;48.764;9.174;2023-02-28T07:51:00;2.00;97.70
674;DHT22;319;48.764;9.174;2023-02-28T07:53:28;2.20;97.30
674;DHT22;319;48.764;9.174;2023-02-28T07:55:56;2.00;97.40
674;DHT22;319;48.764;9.174;2023-02-28T07:58:23;1.90;97.10
674;DHT22;319;48.764;9.174;2023-02-28T08:00:51;2.10;99.90
674;DHT22;319;48.764;9.174;2023-02-28T08:03:18;2.30;97.10
674;DHT22;319;48.764;9.174;2023-02-28T08:05:45;2.10;97.30
674;DHT22;319;48.764;9.174;2023-02-28T08:08:15;2.20;97.40
674;DHT22;319;48.764;9.174;2023-02-28T08:10:43;2.00;97.00
674;DHT22;319;48.764;9.174;2023-02-28T08:13:10;2.00;97.70
674;DHT22;319;48.764;9.174;2023-02-28T08:15:36;2.40;98.10
674;DHT22;319;48.764;9.174;2023-02-28T08:18:03;2.00;97.80
674;DHT22;319;48.764;9.174;2023-02-28T08:20:30;2.10;97.70
674;DHT22;319;48.764;9.174;2023-02-28T08:22:57;2.00;98.00
674;DHT22;319;48.764;9.174;2023-02-28T08:25:25;1.90;97.60
674;DHT22;319;48.764;9.174;2023-02-28T08:27:52;2.30;97.90
674;DHT22;319;48.764;9.174;2023-02-28T08:30:19;2.10;97.20
674;DHT22;319;48.764;9.174;2023-02-28T08:32:46;2.20;97.40
674;DHT22;319;48.764;9.174;2023-02-28T08:35:13;2.40;97.20
674;DHT22;319;48.764;9.174;2023-02-28T08:37:39;2.10;96.80
674;DHT22;319;48.764;9.174;2023-02-28T08:40:08;2.10;96.00
674;DHT22;319;48.764;9.174;2023-02-28T08:42:36;2.40;99.90
674;DHT22;319;48.764;9.174;2023-02-28T08:45:04;2.00;97.10
674;DHT22;319;48.764;9.174;2023-02-28T08:47:32;1.90;95.60
674;DHT22;319;48.764;9.174;2023-02-28T08:49:58;2.00;97.00
674;DHT22;319;48.764;9.174;2023-02-28T08:52:25;2.70;97.20
674;DHT22;319;48.764;9.174;2023-02-28T08:54:52;2.10;99.90
674;DHT22;319;48.764;9.174;2023-02-28T08:57:19;2.00;99.90
674;DHT22;319;48.764;9.174;2023-02-28T08:59:47;1.90;97.40
674;DHT22;319;48.764;9.174;2023-02-28T09:02:14;2.40;97.70
674;DHT22;319;48.764;9.174;2023-02-28T09:04:47;2.40;99.90
674;DHT22;319;48.764;9.174;2023-02-28T09:07:14;2.10;97.00
674;DHT22;319;48.764;9.174;2023-02-28T09:09:41;2.80;96.60
674;DHT22;319;48.764;9.174;2023-02-28T09:12:19;2.40;96.90
674;DHT22;319;48.764;9.174;2023-02-28T09:14:47;2.90;97.10
674;DHT22;319;48.764;9.174;2023-02-28T09:17:14;2.50;97.10
674;DHT22;319;48.764;9.174;2023-02-28T09:19:41;2.50;96.30
674;DHT22;319;48.764;9.174;2023-02-28T09:22:08;2.50;95.80
674;DHT22;319;48.764;9.174;2023-02-28T09:24:35;2.70;95.60
674;DHT22;319;48.764;9.174;2023-02-28T09:27:02;2.60;96.00
674;DHT22;319;48.764;9.174;2023-02-28T09:29:30;2.60;99.90
674;DHT22;319;48.764;9.174;2023-02-28T09:31:58;2.50;96.10
674;DHT22;319;48.764;9.174;2023-02-28T09:34:25;2.80;96.80
674;DHT22;319;48.764;9.174;2023-02-28T09:36:52;2.50;96.40
674;DHT22;319;48.764;9.174;2023-02-28T09:39:20;3.10;96.40
674;DHT22;319;48.764;9.174;2023-02-28T09:41:50;2.80;96.30
674;DHT22;319;48.764;9.174;2023-02-28T09:44:22;3.00;95.80
674;DHT22;319;48.764;9.174;2023-02-28T09:46:55;3.10;95.80
674;DHT22;319;48.764;9.174;2023-02-28T09:49:31;3.20;95.20
674;DHT22;319;48.764;9.174;2023-02-28T09:52:02;3.40;95.00
674;DHT22;319;48.764;9.174;2023-02-28T09:54:32;3.40;94.80
674;DHT22;319;48.764;9.174;2023-02-28T09:57:04;3.30;95.20
674;DHT22;319;48.764;9.174;2023-02-28T09:59:45;3.90;99.90
674;DHT22;319;48.764;9.174;2023-02-28T10:02:28;3.70;92.50
674;DHT22;319;48.764;9.174;2023-02-28T10:05:06;3.70;94.60
674;DHT22;319;48.764;9.174;2023-02-28T10:07:47;3.90;94.50
674;DHT22;319;48.764;9.174;2023-02-28T10:10:20;3.80;94.70
674;DHT22;319;48.764;9.174;2023-02-28T10:12:49;3.60;94.50
674;DHT22;319;48.764;9.174;2023-02-28T10:15:19;3.80;94.00
674;DHT22;319;48.764;9.174;2023-02-28T10:17:51;3.80;99.90
674;DHT22;319;48.764;9.174;2023-02-28T10:20:25;3.80;93.90
674;DHT22;319;48.764;9.174;2023-02-28T10:22:58;3.80;93.90
674;DHT22;319;48.764;9.174;2023-02-28T10:25:33;3.90;94.70
674;DHT22;319;48.764;9.174;2023-02-28T10:28:09;3.60;94.20
674;DHT22;319;48.764;9.174;2023-02-28T10:30:39;3.60;94.10
674;DHT22;319;48.764;9.174;2023-02-28T10:33:17;3.50;94.40
674;DHT22;319;48.764;9.174;2023-02-28T10:35:47;3.40;94.40
674;DHT22;319;48.764;9.174;2023-02-28T10:38:17;3.50;95.00
674;DHT22;319;48.764;9.174;2023-02-28T10:40:44;3.50;95.10
674;DHT22;319;48.764;9.174;2023-02-28T10:43:20;3.80;94.70
674;DHT22;319;48.764;9.174;2023-02-28T10:45:59;3.80;94.30
674;DHT22;319;48.764;9.174;2023-02-28T10:48:32;3.80;94.10
674;DHT22;319;48.764;9.174;2023-02-28T10:51:02;4.10;94.40
674;DHT22;319;48.764;9.174;2023-02-28T10:53:33;4.10;93.70
674;DHT22;319;48.764;9.174;2023-02-28T10:56:02;4.10;92.90
674;DHT22;319;48.764;9.174;2023-02-28T10:58:34;4.90;92.70
674;DHT22;319;48.764;9.174;2023-02-28T11:01:13;4.30;92.90
674;DHT22;319;48.764;9.174;2023-02-28T11:03:40;4.20;92.10
674;DHT22;319;48.764;9.174;2023-02-28T11:06:15;4.00;92.80
674;DHT22;319;48.764;9.174;2023-02-28T11:08:45;4.30;93.60
674;DHT22;319;48.764;9.174;2023-02-28T11:11:13;4.20;93.10
674;DHT22;319;48.764;9.174;2023-02-28T11:13:44;4.50;92.80
674;DHT22;319;48.764;9.174;2023-02-28T11:16:12;4.10;99.90
674;DHT22;319;48.764;9.174;2023-02-28T11:18:44;4.10;93.00
674;DHT22;319;48.764;9.174;2023-02-28T11:21:19;4.00;93.10
674;DHT22;319;48.764;9.174;2023-02-28T11:23:49;3.90;93.30
674;DHT22;319;48.764;9.174;2023-02-28T11:26:35;3.70;99.90
674;DHT22;319;48.764;9.174;2023-02-28T11:29:10;5.70;94.50
674;DHT22;319;48.764;9.174;2023-02-28T11:31:39;4.20;93.40
674;DHT22;319;48.764;9.174;2023-02-28T11:34:24;4.50;92.60
674;DHT22;319;48.764;9.174;2023-02-28T11:36:56;3.60;92.30
674;DHT22;319;48.764;9.174;2023-02-28T11:39:24;4.50;91.70
674;DHT22;319;48.764;9.174;2023-02-28T11:42:05;4.50;92.10
674;DHT22;319;48.764;9.174;2023-02-28T11:44:43;4.40;90.30
674;DHT22;319;48.764;9.174;2023-02-28T11:47:22;4.60;92.90
674;DHT22;319;48.764;9.174;2023-02-28T11:50:04;4.80;93.50
674;DHT22;319;48.764;9.174;2023-02-28T11:52:39;4.60;92.90
674;DHT22;319;48.764;9.174;2023-02-28T11:55:16;4.90;91.80
674;DHT22;319;48.764;9.174;2023-02-28T11:58:01;4.90;91.20
674;DHT22;319;48.764;9.174;2023-02-28T12:03:26;5.20;90.80
674;DHT22;319;48.764;9.174;2023-02-28T12:06:01;5.00;90.60
674;DHT22;319;48.764;9.174;2023-02-28T12:08:43;5.60;89.70
674;DHT22;319;48.764;9.174;2023-02-28T12:11:16;5.90;88.50
674;DHT22;319;48.764;9.174;2023-02-28T12:13:48;5.80;87.60
674;DHT22;319;48.764;9.174;2023-02-28T12:16:28;5.50;99.90
674;DHT22;319;48.764;9.174;2023-02-28T12:19:07;5.70;88.80
674;DHT22;319;48.764;9.174;2023-02-28T12:21:55;5.90;87.60
674;DHT22;319;48.764;9.174;2023-02-28T12:24:43;6.00;82.30
674;DHT22;319;48.764;9.174;2023-02-28T12:27:15;5.90;87.20
674;DHT22;319;48.764;9.174;2023-02-28T12:29:47;5.90;86.00
674;DHT22;319;48.764;9.174;2023-02-28T12:32:20;6.00;85.60
674;DHT22;319;48.764;9.174;2023-02-28T12:34:50;6.00;84.70
674;DHT22;319;48.764;9.174;2023-02-28T12:37:24;5.50;84.70
674;DHT22;319;48.764;9.174;2023-02-28T12:39:56;6.20;86.10
674;DHT22;319;48.764;9.174;2023-02-28T12:42:29;5.90;86.50
674;DHT22;319;48.764;9.174;2023-02-28T12:44:59;5.60;88.20
674;DHT22;319;48.764;9.174;2023-02-28T12:47:27;5.70;89.00
674;DHT22;319;48.764;9.174;2023-02-28T12:49:56;5.60;87.30
674;DHT22;319;48.764;9.174;2023-02-28T12:52:29;5.50;99.90
674;DHT22;319;48.764;9.174;2023-02-28T12:55:02;5.60;88.20
674;DHT22;319;48.764;9.174;2023-02-28T12:57:35;5.70;89.00
674;DHT22;319;48.764;9.174;2023-02-28T13:00:08;5.70;89.10
674;DHT22;319;48.764;9.174;2023-02-28T13:03:06;6.00;86.30
674;DHT22;319;48.764;9.174;2023-02-28T13:06:05;6.10;87.60
674;DHT22;319;48.764;9.174;2023-02-28T13:08:50;6.00;82.10
674;DHT22;319;48.764;9.174;2023-02-28T13:11:26;6.30;81.00
674;DHT22;319;48.764;9.174;2023-02-28T13:13:59;6.40;83.60
674;DHT22;319;48.764;9.174;2023-02-28T13:16:26;6.20;99.90
674;DHT22;319;48.764;9.174;2023-02-28T13:19:09;7.00;86.40
674;DHT22;319;48.764;9.174;2023-02-28T13:21:43;7.40;86.70
674;DHT22;319;48.764;9.174;2023-02-28T13:24:11;6.30;83.40
674;DHT22;319;48.764;9.174;2023-02-28T13:29:58;6.50;79.60
674;DHT22;319;48.764;9.174;2023-02-28T13:32:33;6.30;82.60
674;DHT22;319;48.764;9.174;2023-02-28T13:38:32;6.60;79.70
674;DHT22;319;48.764;9.174;2023-02-28T13:44:06;6.90;79.40
674;DHT22;319;48.764;9.174;2023-02-28T13:46:37;6.70;83.30
674;DHT22;319;48.764;9.174;2023-02-28T13:49:26;6.70;81.40
674;DHT22;319;48.764;9.174;2023-02-28T13:52:04;6.60;82.40
674;DHT22;319;48.764;9.174;2023-02-28T13:54:45;6.80;79.40
674;DHT22;319;48.764;9.174;2023-02-28T13:57:26;6.70;80.50
674;DHT22;319;48.764;9.174;2023-02-28T14:00:23;6.90;99.90
674;DHT22;319;48.764;9.174;2023-02-28T14:03:12;6.50;81.10
674;DHT22;319;48.764;9.174;2023-02-28T14:05:43;6.80;78.60
674;DHT22;319;48.764;9.174;2023-02-28T14:08:15;7.40;79.70
674;DHT22;319;48.764;9.174;2023-02-28T14:10:45;6.90;79.50
674;DHT22;319;48.764;9.174;2023-02-28T14:15:57;6.80;79.10
674;DHT22;319;48.764;9.174;2023-02-28T14:18:29;6.90;79.40
674;DHT22;319;48.764;9.174;2023-02-28T14:21:11;9.50;83.20
674;DHT22;319;48.764;9.174;2023-02-28T14:24:19;6.70;99.90
674;DHT22;319;48.764;9.174;2023-02-28T14:32:51;6.50;81.00
674;DHT22;319;48.764;9.174;2023-02-28T14:35:36;6.70;81.10
674;DHT22;319;48.764;9.174;2023-02-28T14:38:14;6.80;80.70
674;DHT22;319;48.764;9.174;2023-02-28T14:40:48;8.70;85.10
674;DHT22;319;48.764;9.174;2023-02-28T14:43:20;6.90;79.70
674;DHT22;319;48.764;9.174;2023-02-28T14:45:50;6.90;80.20
674;DHT22;319;48.764;9.174;2023-02-28T14:48:19;6.90;80.00
674;DHT22;319;48.764;9.174;2023-02-28T14:50:51;6.90;79.80
674;DHT22;319;48.764;9.174;2023-02-28T14:53:20;7.10;80.90
674;DHT22;319;48.764;9.174;2023-02-28T14:55:51;7.00;81.00
674;DHT22;319;48.764;9.174;2023-02-28T14:58:29;6.90;99.90
674;DHT22;319;48.764;9.174;2023-02-28T15:01:11;7.00;78.50
674;DHT22;319;48.764;9.174;2023-02-28T15:03:39;7.60;79.90
674;DHT22;319;48.764;9.174;2023-02-28T15:06:15;6.90;79.40
674;DHT22;319;48.764;9.174;2023-02-28T15:11:17;7.10;75.90
674;DHT22;319;48.764;9.174;2023-02-28T15:13:48;7.00;80.20
674;DHT22;319;48.764;9.174;2023-02-28T15:19:42;7.40;77.20
674;DHT22;319;48.764;9.174;2023-02-28T15:25:47;7.10;77.90
674;DHT22;319;48.764;9.174;2023-02-28T15:28:48;6.90;79.40
674;DHT22;319;48.764;9.174;2023-02-28T15:31:31;6.70;97.70
674;DHT22;319;48.764;9.174;2023-02-28T15:34:03;6.70;76.60
674;DHT22;319;48.764;9.174;2023-02-28T15:36:38;6.80;79.10
674;DHT22;319;48.764;9.174;2023-02-28T15:59:00;6.70;77.80
674;DHT22;319;48.764;9.174;2023-02-28T16:01:35;6.80;98.60
674;DHT22;319;48.764;9.174;2023-02-28T16:04:04;8.20;84.90
674;DHT22;319;48.764;9.174;2023-02-28T16:06:34;7.30;83.50
674;DHT22;319;48.764;9.174;2023-02-28T16:09:03;6.10;82.00
674;DHT22;319;48.764;9.174;2023-02-28T16:11:33;6.30;82.20
674;DHT22;319;48.764;9.174;2023-02-28T16:14:02;6.50;82.60
674;DHT22;319;48.764;9.174;2023-02-28T16:16:31;6.30;82.50
674;DHT22;319;48.764;9.174;2023-02-28T16:18:58;6.10;99.90
674;DHT22;319;48.764;9.174;2023-02-28T16:26:23;6.20;99.90
674;DHT22;319;48.764;9.174;2023-02-28T16:28:53;6.20;83.30
674;DHT22;319;48.764;9.174;2023-02-28T16:31:21;6.10;83.30
674;DHT22;319;48.764;9.174;2023-02-28T16:33:48;6.30;83.10
674;DHT22;319;48.764;9.174;2023-02-28T16:36:16;6.30;82.50
674;DHT22;319;48.764;9.174;2023-02-28T16:38:43;6.20;99.90
674;DHT22;319;48.764;9.174;2023-02-28T16:41:12;6.20;82.90
674;DHT22;319;48.764;9.174;2023-02-28T16:43:45;6.10;83.20
674;DHT22;319;48.764;9.174;2023-02-28T16:48:44;6.00;81.60
674;DHT22;319;48.764;9.174;2023-02-28T16:51:12;5.90;84.20
674;DHT22;319;48.764;9.174;2023-02-28T16:56:09;5.90;80.90
674;DHT22;319;48.764;9.174;2023-02-28T16:58:39;5.20;83.20
674;DHT22;319;48.764;9.174;2023-02-28T17:01:06;6.70;86.60
674;DHT22;319;48.764;9.174;2023-02-28T17:03:32;5.80;85.70
674;DHT22;319;48.764;9.174;2023-02-28T17:06:03;7.10;85.50
674;DHT22;319;48.764;9.174;2023-02-28T17:08:31;5.80;85.80
674;DHT22;319;48.764;9.174;2023-02-28T17:10:58;5.70;84.50
674;DHT22;319;48.764;9.174;2023-02-28T17:13:25;5.70;84.90
674;DHT22;319;48.764;9.174;2023-02-28T17:15:52;5.80;85.00
674;DHT22;319;48.764;9.174;2023-02-28T17:18:19;5.60;85.50
674;DHT22;319;48.764;9.174;2023-02-28T17:20:47;5.60;85.30
674;DHT22;319;48.764;9.174;2023-02-28T17:23:16;5.60;85.20
674;DHT22;319;48.764;9.174;2023-02-28T17:25:43;5.50;85.70
674;DHT22;319;48.764;9.174;2023-02-28T17:28:18;5.60;84.10
674;DHT22;319;48.764;9.174;2023-02-28T17:30:45;5.60;85.00
674;DHT22;319;48.764;9.174;2023-02-28T17:33:13;5.50;85.60
674;DHT22;319;48.764;9.174;2023-02-28T17:35:40;5.30;86.00
674;DHT22;319;48.764;9.174;2023-02-28T17:41:49;5.50;99.90
674;DHT22;319;48.764;9.174;2023-02-28T17:44:23;5.40;86.60
674;DHT22;319;48.764;9.174;2023-02-28T17:46:52;5.40;86.70
674;DHT22;319;48.764;9.174;2023-02-28T17:49:20;5.30;86.90
674;DHT22;319;48.764;9.174;2023-02-28T17:54:15;6.40;85.60
674;DHT22;319;48.764;9.174;2023-02-28T17:56:44;5.30;86.30
674;DHT22;319;48.764;9.174;2023-02-28T17:59:12;5.10;89.50
674;DHT22;319;48.764;9.174;2023-02-28T18:01:39;5.20;88.10
674;DHT22;319;48.764;9.174;2023-02-28T18:04:06;5.00;88.30
674;DHT22;319;48.764;9.174;2023-02-28T18:06:36;5.00;88.60
674;DHT22;319;48.764;9.174;2023-02-28T18:09:11;5.10;89.50
674;DHT22;319;48.764;9.174;2023-02-28T18:11:39;5.10;89.10
674;DHT22;319;48.764;9.174;2023-02-28T18:14:11;5.00;89.00
674;DHT22;319;48.764;9.174;2023-02-28T18:16:38;4.90;89.30
674;DHT22;319;48.764;9.174;2023-02-28T18:19:05;4.90;90.00
674;DHT22;319;48.764;9.174;2023-02-28T18:21:34;4.80;90.10
674;DHT22;319;48.764;9.174;2023-02-28T18:24:02;4.90;99.90
674;DHT22;319;48.764;9.174;2023-02-28T18:26:32;4.60;90.30
674;DHT22;319;48.764;9.174;2023-02-28T18:28:59;4.80;91.40
674;DHT22;319;48.764;9.174;2023-02-28T18:31:27;4.60;91.50
674;DHT22;319;48.764;9.174;2023-02-28T18:33:54;4.50;91.50
674;DHT22;319;48.764;9.174;2023-02-28T18:36:20;4.30;99.90
674;DHT22;319;48.764;9.174;2023-02-28T18:38:48;4.40;91.70
674;DHT22;319;48.764;9.174;2023-02-28T18:41:15;4.40;91.90
674;DHT22;319;48.764;9.174;2023-02-28T18:43:43;4.20;91.80
674;DHT22;319;48.764;9.174;2023-02-28T18:46:12;4.50;92.50